Time;durP1;ratioP1;P1;durP2;ratioP2;P2;SDS_P1;SDS_P2;PMS_P1;PMS_P2;Temp;Humidity;BMP_temperature;BMP_pressure;BME280_temperature;BME280_humidity;BME280_pressure;Samples;Min_cycle;Max_cycle;Signal;HPM_P1;HPM_P2
2022/12/19 00:01:34;;;;;;;;;;;;;;;5.43;71.86;101289.84;4974297;28;2003;-86
2022/12/19 00:04:00;;;;;;;;;;;;;;;5.45;71.74;101280.66;4973115;28;3335;-84
2022/12/19 00:06:26;;;;;;;;;;;;;;;5.46;71.84;101274.31;4976064;28;2056;-86
2022/12/19 00:08:52;;;;;;;;;;;;;;;5.52;71.75;101277.31;4976537;28;2101;-85
2022/12/19 00:11:19;;;;;;;;;;;;;;;5.53;71.50;101277.16;4973129;28;1997;-85
2022/12/19 00:13:45;;;;;;;;;;;;;;;5.65;71.05;101283.00;4951691;28;1957;-85
2022/12/19 00:16:12;;;;;;;;;;;;;;;5.49;71.63;101272.31;4967109;28;3219;-86
2022/12/19 00:18:38;;;;;;;;;;;;;;;5.56;71.33;101270.63;4953658;28;2191;-83
2022/12/19 00:21:04;;;;;;;;;;;;;;;5.49;71.71;101275.81;4971980;28;1891;-86
2022/12/19 00:23:30;;;;;;;;;;;;;;;5.53;71.71;101266.47;4966929;28;2080;-85
2022/12/19 00:25:57;;;;;;;;;;;;;;;5.51;71.54;101265.78;4965002;28;1935;-84
2022/12/19 00:28:23;;;;;;;;;;;;;;;5.39;71.77;101269.81;4954836;28;2775;-84
2022/12/19 00:30:49;;;;;;;;;;;;;;;5.47;71.71;101259.09;4988297;23;3623;-85
2022/12/19 00:33:16;;;;;;;;;;;;;;;5.61;71.39;101252.25;4978262;28;1981;-85
2022/12/19 00:35:42;;;;;;;;;;;;;;;5.50;71.47;101250.78;4969617;28;2054;-86
2022/12/19 00:38:08;;;;;;;;;;;;;;;5.54;71.60;101238.72;4951894;28;2008;-86
2022/12/19 00:40:35;;;;;;;;;;;;;;;5.61;71.38;101241.56;4971512;28;1987;-84
2022/12/19 00:43:01;;;;;;;;;;;;;;;5.68;70.96;101245.22;4956522;28;2059;-85
2022/12/19 00:45:28;;;;;;;;;;;;;;;5.61;71.21;101229.00;4966612;28;2080;-85
2022/12/19 00:47:54;;;;;;;;;;;;;;;5.63;71.47;101227.00;4965015;28;1949;-85
2022/12/19 00:50:20;;;;;;;;;;;;;;;5.66;71.23;101228.53;4970175;28;1891;-85
2022/12/19 00:52:46;;;;;;;;;;;;;;;5.65;71.39;101221.53;4957770;28;1965;-85
2022/12/19 00:55:13;;;;;;;;;;;;;;;5.70;71.05;101228.00;4971074;28;2019;-85
2022/12/19 00:57:39;;;;;;;;;;;;;;;5.64;71.17;101225.19;4965317;28;2430;-85
2022/12/19 01:00:05;;;;;;;;;;;;;;;5.57;71.44;101221.53;4968133;28;1969;-86
2022/12/19 01:02:32;;;;;;;;;;;;;;;5.72;70.97;101222.47;4980105;28;2071;-85
2022/12/19 01:04:58;;;;;;;;;;;;;;;5.75;70.72;101224.81;4973366;28;2452;-85
2022/12/19 01:07:24;;;;;;;;;;;;;;;5.79;70.92;101230.66;4960921;28;4059;-86
2022/12/19 01:09:51;;;;;;;;;;;;;;;5.85;70.58;101219.25;4966371;28;4015;-85
2022/12/19 01:15:01;;;;;;;;;;;;;;;5.74;70.92;101215.13;4958226;28;2035;-85
2022/12/19 01:17:27;;;;;;;;;;;;;;;5.85;70.37;101212.09;4963622;28;2111;-85
2022/12/19 01:19:53;;;;;;;;;;;;;;;5.88;70.62;101203.72;4967950;28;2041;-85
2022/12/19 01:22:19;;;;;;;;;;;;;;;5.92;70.22;101207.72;4943704;28;2520;-85
2022/12/19 01:24:46;;;;;;;;;;;;;;;5.84;70.58;101202.38;4957958;28;1960;-85
2022/12/19 01:27:12;;;;;;;;;;;;;;;5.92;70.41;101197.03;4973063;28;2030;-85
2022/12/19 01:29:38;;;;;;;;;;;;;;;5.79;70.73;101186.03;4956804;28;2076;-85
2022/12/19 01:32:05;;;;;;;;;;;;;;;5.90;70.32;101191.00;4957412;28;2191;-85
2022/12/19 01:34:31;;;;;;;;;;;;;;;5.85;70.57;101196.06;4964262;28;1841;-85
2022/12/19 01:36:57;;;;;;;;;;;;;;;5.86;70.50;101181.69;4984444;28;2642;-85
2022/12/19 01:39:24;;;;;;;;;;;;;;;6.08;69.66;101171.25;4964387;28;2805;-84
2022/12/19 01:41:50;;;;;;;;;;;;;;;6.03;69.95;101173.59;4952667;28;1966;-85
2022/12/19 01:44:16;;;;;;;;;;;;;;;5.92;70.31;101172.13;4950771;29;2016;-84
2022/12/19 01:46:43;;;;;;;;;;;;;;;5.96;70.11;101178.81;4971796;28;2079;-85
2022/12/19 01:49:09;;;;;;;;;;;;;;;5.95;70.28;101162.97;4973662;28;2064;-85
2022/12/19 01:51:35;;;;;;;;;;;;;;;6.01;69.90;101165.75;4960320;28;2037;-84
2022/12/19 01:54:02;;;;;;;;;;;;;;;5.99;70.02;101162.41;4954662;28;2056;-84
2022/12/19 01:56:28;;;;;;;;;;;;;;;6.01;69.80;101172.97;4952481;28;1983;-85
2022/12/19 01:58:54;;;;;;;;;;;;;;;6.06;69.98;101171.44;4957788;28;1921;-85
2022/12/19 02:01:21;;;;;;;;;;;;;;;5.95;70.10;101169.13;4956678;28;2537;-85
2022/12/19 02:03:47;;;;;;;;;;;;;;;6.14;69.59;101166.00;4978381;28;2083;-85
2022/12/19 02:06:16;;;;;;;;;;;;;;;6.06;69.95;101163.41;4992757;23;3879;-85
2022/12/19 02:08:43;;;;;;;;;;;;;;;6.04;69.91;101159.22;4969329;28;4154;-85
2022/12/19 02:11:09;;;;;;;;;;;;;;;6.07;69.92;101159.72;4984650;28;3157;-85
2022/12/19 02:13:35;;;;;;;;;;;;;;;5.97;70.21;101156.44;4964632;28;3197;-86
2022/12/19 02:16:02;;;;;;;;;;;;;;;6.09;69.79;101159.56;4963116;28;1992;-85
2022/12/19 02:18:28;;;;;;;;;;;;;;;6.02;70.20;101153.22;4982587;28;2042;-85
2022/12/19 02:20:54;;;;;;;;;;;;;;;6.11;69.95;101158.34;4977066;28;1803;-85
2022/12/19 02:23:21;;;;;;;;;;;;;;;6.17;69.64;101153.31;4969418;28;1939;-84
2022/12/19 02:25:47;;;;;;;;;;;;;;;6.18;69.53;101154.97;4989946;28;3077;-84
2022/12/19 02:28:13;;;;;;;;;;;;;;;6.20;69.70;101153.78;4968998;28;1960;-85
2022/12/19 02:30:39;;;;;;;;;;;;;;;6.09;70.10;101152.34;4984782;28;1940;-84
2022/12/19 02:33:07;;;;;;;;;;;;;;;6.17;69.87;101145.28;4977003;28;2108;-84
2022/12/19 02:35:33;;;;;;;;;;;;;;;6.21;69.54;101144.75;4967234;28;2157;-84
2022/12/19 02:38:00;;;;;;;;;;;;;;;6.17;69.62;101145.28;4982119;28;2740;-84
2022/12/19 02:40:26;;;;;;;;;;;;;;;6.22;69.43;101141.06;4986607;28;1979;-84
2022/12/19 02:42:52;;;;;;;;;;;;;;;6.28;69.55;101137.69;4986078;28;1930;-85
2022/12/19 02:45:19;;;;;;;;;;;;;;;6.31;69.16;101123.13;4972139;28;2008;-84
2022/12/19 02:47:45;;;;;;;;;;;;;;;6.32;69.50;101122.09;4971685;28;2183;-84
2022/12/19 02:50:11;;;;;;;;;;;;;;;6.29;69.47;101112.59;4978753;28;2039;-84
2022/12/19 02:52:38;;;;;;;;;;;;;;;6.27;69.42;101116.47;4975911;28;1984;-85
2022/12/19 02:55:04;;;;;;;;;;;;;;;6.21;69.62;101110.00;4975161;28;2496;-85
2022/12/19 02:57:30;;;;;;;;;;;;;;;6.28;69.28;101107.44;4968048;28;2058;-85
2022/12/19 02:59:57;;;;;;;;;;;;;;;6.27;69.59;101108.44;4973863;28;2130;-84
2022/12/19 03:02:23;;;;;;;;;;;;;;;6.40;69.05;101103.31;4989173;28;2084;-83
2022/12/19 03:04:49;;;;;;;;;;;;;;;6.22;69.44;101113.50;4987081;28;2054;-83
2022/12/19 03:07:15;;;;;;;;;;;;;;;6.34;69.31;101110.22;4988860;28;2179;-85
2022/12/19 03:09:42;;;;;;;;;;;;;;;6.36;69.30;101100.19;4990021;28;2248;-84
2022/12/19 03:12:08;;;;;;;;;;;;;;;6.39;69.05;101093.63;4986661;28;4247;-83
2022/12/19 03:14:34;;;;;;;;;;;;;;;6.31;69.58;101089.16;4989193;28;2426;-84
2022/12/19 03:17:01;;;;;;;;;;;;;;;6.33;69.58;101078.31;4976890;28;3329;-84
2022/12/19 03:19:27;;;;;;;;;;;;;;;6.45;69.01;101076.88;4994255;28;2118;-83
2022/12/19 03:21:53;;;;;;;;;;;;;;;6.42;68.79;101061.16;4973112;28;1211;-83
2022/12/19 03:24:20;;;;;;;;;;;;;;;6.42;69.12;101061.16;4974582;28;1961;-85
2022/12/19 03:26:46;;;;;;;;;;;;;;;6.46;69.21;101061.63;4975898;28;1791;-85
2022/12/19 03:29:12;;;;;;;;;;;;;;;6.39;69.21;101053.50;4994128;23;3648;-84
2022/12/19 03:31:38;;;;;;;;;;;;;;;6.40;69.26;101057.00;4952361;28;2400;-84
2022/12/19 03:34:05;;;;;;;;;;;;;;;6.40;69.37;101043.63;4953210;28;1950;-84
2022/12/19 03:36:31;;;;;;;;;;;;;;;6.34;69.45;101045.19;4968463;28;2203;-84
2022/12/19 03:38:57;;;;;;;;;;;;;;;6.43;69.06;101040.59;4971305;28;2066;-84
2022/12/19 03:44:04;;;;;;;;;;;;;;;6.50;69.01;101039.69;4955801;28;1881;-84
2022/12/19 03:46:30;;;;;;;;;;;;;;;6.36;69.30;101035.13;4968836;28;2013;-84
2022/12/19 03:48:57;;;;;;;;;;;;;;;6.36;69.48;101030.63;4964697;28;1928;-84
2022/12/19 03:51:23;;;;;;;;;;;;;;;6.37;69.53;101031.44;4955223;28;2041;-84
2022/12/19 03:53:49;;;;;;;;;;;;;;;6.36;69.33;101033.28;4974238;28;2070;-84
2022/12/19 03:56:15;;;;;;;;;;;;;;;6.43;69.15;101017.34;4954923;28;1965;-84
2022/12/19 03:58:42;;;;;;;;;;;;;;;6.43;69.36;101021.88;4973967;28;1948;-84
2022/12/19 04:01:08;;;;;;;;;;;;;;;6.31;69.50;101006.25;4969216;28;2044;-84
2022/12/19 04:03:34;;;;;;;;;;;;;;;6.30;69.68;101009.13;4956581;28;1960;-84
2022/12/19 04:06:01;;;;;;;;;;;;;;;6.34;69.74;101007.72;4954774;28;2190;-84
2022/12/19 04:08:27;;;;;;;;;;;;;;;6.37;69.35;101012.72;4944268;29;2331;-84
2022/12/19 04:10:53;;;;;;;;;;;;;;;6.36;69.44;101011.06;4971347;28;2059;-84
2022/12/19 04:13:20;;;;;;;;;;;;;;;6.36;69.75;101003.03;4958409;28;2056;-84
2022/12/19 04:15:46;;;;;;;;;;;;;;;6.39;69.55;100996.50;4969446;28;1955;-84
2022/12/19 04:18:12;;;;;;;;;;;;;;;6.34;69.63;100997.84;4946151;28;3994;-84
2022/12/19 04:20:39;;;;;;;;;;;;;;;6.25;69.94;100998.13;4958033;28;3611;-84
2022/12/19 04:23:05;;;;;;;;;;;;;;;6.37;69.79;101000.16;4965822;28;3171;-84
2022/12/19 04:25:31;;;;;;;;;;;;;;;6.33;69.73;101000.72;4962900;28;1975;-84
2022/12/19 04:27:58;;;;;;;;;;;;;;;6.26;69.90;100989.06;4969358;28;1956;-84
2022/12/19 04:30:24;;;;;;;;;;;;;;;6.28;70.25;100990.56;4968381;28;2300;-84
2022/12/19 04:32:50;;;;;;;;;;;;;;;6.23;70.17;100982.22;4962614;23;3701;-81
2022/12/19 04:35:17;;;;;;;;;;;;;;;6.19;70.26;100972.09;4936846;28;3146;-81
2022/12/19 04:37:43;;;;;;;;;;;;;;;6.24;70.26;100965.19;4935083;29;2131;-81
2022/12/19 04:40:09;;;;;;;;;;;;;;;6.21;70.18;100962.06;4951918;28;1976;-82
2022/12/19 04:42:36;;;;;;;;;;;;;;;6.23;70.28;100951.97;4946774;28;1953;-81
2022/12/19 04:45:02;;;;;;;;;;;;;;;6.24;69.98;100962.50;4953472;29;1949;-81
2022/12/19 04:47:28;;;;;;;;;;;;;;;6.16;70.43;100959.91;4949445;28;2857;-80
2022/12/19 04:49:55;;;;;;;;;;;;;;;6.21;70.13;100967.41;4952455;29;2036;-80
2022/12/19 04:52:21;;;;;;;;;;;;;;;6.17;70.17;100961.56;4952364;29;2227;-80
2022/12/19 04:54:47;;;;;;;;;;;;;;;6.17;70.42;100961.56;4932601;29;1995;-81
2022/12/19 04:57:14;;;;;;;;;;;;;;;6.23;70.18;100960.81;4929837;29;2202;-81
2022/12/19 04:59:40;;;;;;;;;;;;;;;6.27;69.96;100964.81;4943751;29;2002;-81
2022/12/19 05:02:06;;;;;;;;;;;;;;;6.19;70.39;100956.03;4948747;29;1976;-81
2022/12/19 05:04:33;;;;;;;;;;;;;;;6.22;70.07;100961.84;4946453;28;2144;-79
2022/12/19 05:06:59;;;;;;;;;;;;;;;6.09;70.65;100950.94;4931175;29;1897;-83
2022/12/19 05:09:26;;;;;;;;;;;;;;;6.14;70.50;100948.53;4927613;29;2086;-81
2022/12/19 05:11:52;;;;;;;;;;;;;;;6.12;70.53;100942.56;4934726;29;2101;-80
2022/12/19 05:14:18;;;;;;;;;;;;;;;6.18;70.31;100943.66;4936672;29;1860;-83
2022/12/19 05:16:45;;;;;;;;;;;;;;;6.07;70.92;100937.75;4933147;29;2572;-80
2022/12/19 05:19:11;;;;;;;;;;;;;;;6.13;70.63;100937.03;4936582;29;1875;-82
2022/12/19 05:21:37;;;;;;;;;;;;;;;6.18;70.19;100927.63;4939547;28;4317;-81
2022/12/19 05:24:04;;;;;;;;;;;;;;;6.15;70.54;100931.50;4943786;29;3246;-82
2022/12/19 05:26:30;;;;;;;;;;;;;;;6.12;70.74;100923.84;4937267;29;2082;-81
2022/12/19 05:28:56;;;;;;;;;;;;;;;6.16;70.69;100924.31;4948543;29;3221;-82
2022/12/19 05:31:23;;;;;;;;;;;;;;;6.09;70.57;100918.88;4944024;28;2579;-82
2022/12/19 05:33:49;;;;;;;;;;;;;;;6.06;70.64;100914.69;4930087;29;2105;-82
2022/12/19 05:36:16;;;;;;;;;;;;;;;6.02;70.79;100925.94;4937461;29;2136;-82
2022/12/19 05:38:42;;;;;;;;;;;;;;;6.12;70.59;100913.97;4932672;29;2438;-82
2022/12/19 05:41:08;;;;;;;;;;;;;;;6.09;70.71;100916.19;4951046;29;2805;-81
2022/12/19 05:43:35;;;;;;;;;;;;;;;6.12;70.48;100910.47;4951220;29;1803;-81
2022/12/19 05:46:01;;;;;;;;;;;;;;;6.03;70.79;100906.19;4932027;29;1959;-82
2022/12/19 05:48:27;;;;;;;;;;;;;;;6.10;70.72;100896.44;4943293;28;2136;-81
2022/12/19 05:50:54;;;;;;;;;;;;;;;6.05;71.06;100901.50;4954330;28;1985;-81
2022/12/19 05:53:20;;;;;;;;;;;;;;;6.13;70.37;100894.22;4947204;29;3253;-81
2022/12/19 05:55:46;;;;;;;;;;;;;;;6.05;70.76;100898.81;4945539;29;2081;-81
2022/12/19 05:58:12;;;;;;;;;;;;;;;6.08;71.01;100901.13;4938913;29;2053;-82
2022/12/19 06:00:39;;;;;;;;;;;;;;;6.02;71.04;100894.66;4931049;29;2054;-81
2022/12/19 06:03:05;;;;;;;;;;;;;;;6.16;70.68;100885.03;4950003;29;1870;-81
2022/12/19 06:05:31;;;;;;;;;;;;;;;6.14;70.45;100887.03;4935884;29;1986;-81
2022/12/19 06:07:58;;;;;;;;;;;;;;;6.20;70.59;100885.47;4942745;29;1741;-82
2022/12/19 06:10:24;;;;;;;;;;;;;;;6.10;70.60;100880.41;4930392;29;2051;-82
2022/12/19 06:12:50;;;;;;;;;;;;;;;6.13;70.41;100877.34;4934182;29;2299;-82
2022/12/19 06:15:17;;;;;;;;;;;;;;;6.17;70.51;100872.47;4959892;28;1988;-81
2022/12/19 06:17:43;;;;;;;;;;;;;;;6.13;70.50;100864.00;4940583;29;2293;-80
2022/12/19 06:20:09;;;;;;;;;;;;;;;6.06;70.77;100865.72;4934521;28;1905;-81
2022/12/19 06:22:36;;;;;;;;;;;;;;;6.25;70.19;100864.38;4954369;28;4001;-83
2022/12/19 06:25:02;;;;;;;;;;;;;;;6.19;70.48;100865.94;4947238;28;4082;-80
2022/12/19 06:27:29;;;;;;;;;;;;;;;6.07;70.63;100862.88;4950675;29;2374;-82
2022/12/19 06:29:55;;;;;;;;;;;;;;;6.21;70.49;100866.59;4937872;29;2200;-81
2022/12/19 06:32:22;;;;;;;;;;;;;;;6.08;70.94;100869.03;4950239;28;2674;-80
2022/12/19 06:34:48;;;;;;;;;;;;;;;6.24;70.32;100865.41;4952864;29;1940;-82
2022/12/19 06:37:14;;;;;;;;;;;;;;;6.16;70.25;100865.47;4942574;29;2372;-81
2022/12/19 06:39:41;;;;;;;;;;;;;;;6.05;70.69;100864.06;4958954;28;2226;-81
2022/12/19 06:42:21;;;;;;;;;;;;;;;6.16;70.36;100858.28;4946791;28;2699;-81
2022/12/19 06:44:48;;;;;;;;;;;;;;;6.14;70.51;100855.75;4951639;29;2258;-82
2022/12/19 06:47:14;;;;;;;;;;;;;;;6.02;71.34;100859.09;4944186;29;2219;-81
2022/12/19 06:49:40;;;;;;;;;;;;;;;6.10;70.88;100865.19;4946954;28;2168;-82
2022/12/19 06:52:07;;;;;;;;;;;;;;;3.94;68.69;100865.91;4949980;28;1991;-83
2022/12/19 06:54:33;;;;;;;;;;;;;;;5.24;71.57;100866.38;4949379;28;2676;-83
2022/12/19 06:57:00;;;;;;;;;;;;;;;5.49;70.26;100861.69;4971180;28;2673;-83
2022/12/19 06:59:26;;;;;;;;;;;;;;;5.92;68.97;100854.78;4936482;29;2046;-83
2022/12/19 07:01:52;;;;;;;;;;;;;;;6.03;69.16;100855.38;4937172;29;2312;-83
2022/12/19 07:04:19;;;;;;;;;;;;;;;6.03;68.85;100850.03;4944615;28;2294;-83
2022/12/19 07:06:45;;;;;;;;;;;;;;;5.97;69.45;100840.94;4936010;29;1961;-83
2022/12/19 07:09:11;;;;;;;;;;;;;;;6.04;69.31;100843.69;4936276;29;1911;-83
2022/12/19 07:11:38;;;;;;;;;;;;;;;6.10;69.08;100832.25;4946415;28;2517;-83
2022/12/19 07:14:04;;;;;;;;;;;;;;;6.05;69.57;100834.66;4953269;28;1704;-82
2022/12/19 07:16:30;;;;;;;;;;;;;;;5.97;69.87;100834.72;4947579;28;2146;-83
2022/12/19 07:18:57;;;;;;;;;;;;;;;6.06;69.83;100829.13;4949806;28;2139;-83
2022/12/19 07:21:23;;;;;;;;;;;;;;;5.93;70.08;100823.56;4958297;29;1883;-83
2022/12/19 07:23:49;;;;;;;;;;;;;;;5.94;70.16;100824.41;4941340;29;1244;-83
2022/12/19 07:26:16;;;;;;;;;;;;;;;5.95;70.18;100828.75;4954776;28;4086;-83
2022/12/19 07:28:43;;;;;;;;;;;;;;;5.98;70.33;100825.72;4940070;29;1875;-83
2022/12/19 07:31:09;;;;;;;;;;;;;;;5.89;70.57;100814.25;4953057;29;3237;-83
2022/12/19 07:33:36;;;;;;;;;;;;;;;5.95;70.56;100818.06;4956796;28;1717;-83
2022/12/19 07:36:02;;;;;;;;;;;;;;;5.89;70.82;100814.25;4938189;28;1990;-83
2022/12/19 07:38:28;;;;;;;;;;;;;;;5.94;70.54;100803.00;4928842;29;2098;-83
2022/12/19 07:40:55;;;;;;;;;;;;;;;5.84;70.76;100801.41;4954800;28;2342;-83
2022/12/19 07:43:21;;;;;;;;;;;;;;;5.87;70.88;100806.38;4935634;29;3523;-83
2022/12/19 07:45:47;;;;;;;;;;;;;;;5.80;71.05;100791.28;4929246;29;2332;-83
2022/12/19 07:48:14;;;;;;;;;;;;;;;5.83;71.19;100793.59;4955726;28;2087;-83
2022/12/19 07:50:40;;;;;;;;;;;;;;;5.70;71.28;100792.34;4946071;28;2551;-83
2022/12/19 07:53:06;;;;;;;;;;;;;;;5.92;70.92;100782.63;4926448;29;2450;-82
2022/12/19 07:55:33;;;;;;;;;;;;;;;5.92;70.86;100784.47;4929685;29;2604;-84
2022/12/19 07:57:59;;;;;;;;;;;;;;;5.91;70.87;100780.09;4933771;29;4044;-83
2022/12/19 08:00:26;;;;;;;;;;;;;;;5.86;70.98;100777.19;4945522;28;2138;-83
2022/12/19 08:02:52;;;;;;;;;;;;;;;5.83;71.12;100774.88;4954831;29;1814;-82
2022/12/19 08:05:18;;;;;;;;;;;;;;;5.89;71.02;100771.47;4951516;29;1961;-82
2022/12/19 08:07:45;;;;;;;;;;;;;;;5.77;71.58;100770.25;4951700;29;1961;-82
2022/12/19 08:10:11;;;;;;;;;;;;;;;5.85;71.09;100762.13;4938446;29;2148;-83
2022/12/19 08:12:37;;;;;;;;;;;;;;;5.73;71.25;100755.59;4954460;29;1927;-83
2022/12/19 08:15:04;;;;;;;;;;;;;;;5.86;71.06;100742.44;4933542;29;1931;-84
2022/12/19 08:17:30;;;;;;;;;;;;;;;5.84;71.26;100749.78;4940451;29;1215;-81
2022/12/19 08:19:57;;;;;;;;;;;;;;;5.82;71.24;100738.44;4957348;28;1847;-83
2022/12/19 08:22:23;;;;;;;;;;;;;;;5.81;71.49;100739.47;4935866;29;1835;-84
2022/12/19 08:24:50;;;;;;;;;;;;;;;5.78;71.39;100737.16;4959466;28;2109;-82
2022/12/19 08:27:16;;;;;;;;;;;;;;;5.85;71.34;100728.25;4938381;29;1895;-84
2022/12/19 08:29:42;;;;;;;;;;;;;;;5.94;70.69;100722.81;4942017;28;2012;-83
2022/12/19 08:32:09;;;;;;;;;;;;;;;5.83;71.39;100718.75;4943844;28;4257;-83
2022/12/19 08:34:35;;;;;;;;;;;;;;;5.83;71.42;100719.56;4953717;28;1914;-82
2022/12/19 08:37:01;;;;;;;;;;;;;;;5.85;71.28;100714.88;4938221;29;3202;-83
2022/12/19 08:39:28;;;;;;;;;;;;;;;5.88;71.49;100710.97;4955794;28;1966;-83
2022/12/19 08:41:54;;;;;;;;;;;;;;;5.83;71.26;100700.84;4946992;29;1955;-83
2022/12/19 08:44:21;;;;;;;;;;;;;;;5.83;71.52;100700.03;4938957;29;1682;-82
2022/12/19 08:46:47;;;;;;;;;;;;;;;5.81;71.26;100705.53;4932641;28;2094;-83
2022/12/19 08:49:13;;;;;;;;;;;;;;;5.88;71.41;100703.81;4935458;29;2586;-83
2022/12/19 08:51:39;;;;;;;;;;;;;;;5.89;70.87;100705.47;4935693;28;2114;-84
2022/12/19 08:54:06;;;;;;;;;;;;;;;5.73;71.46;100708.31;4951149;28;1913;-83
2022/12/19 08:56:32;;;;;;;;;;;;;;;5.83;71.29;100708.88;4936636;29;2159;-83
2022/12/19 08:58:58;;;;;;;;;;;;;;;5.87;71.25;100707.47;4922036;29;1872;-83
2022/12/19 09:01:25;;;;;;;;;;;;;;;5.81;71.35;100702.06;4955653;28;2799;-82
2022/12/19 09:03:51;;;;;;;;;;;;;;;5.95;70.94;100703.09;4928753;28;2252;-83
2022/12/19 09:06:17;;;;;;;;;;;;;;;5.85;71.28;100700.66;4937803;29;1922;-83
2022/12/19 09:08:44;;;;;;;;;;;;;;;5.90;71.08;100703.59;4952002;28;1996;-83
2022/12/19 09:11:10;;;;;;;;;;;;;;;5.80;71.64;100703.91;4937530;29;2164;-83
2022/12/19 09:13:36;;;;;;;;;;;;;;;5.79;71.73;100701.41;4951607;28;2070;-83
2022/12/19 09:16:03;;;;;;;;;;;;;;;5.77;71.69;100687.41;4949126;28;1936;-84
2022/12/19 09:18:30;;;;;;;;;;;;;;;5.76;71.95;100685.72;4939707;29;1712;-82
2022/12/19 09:20:56;;;;;;;;;;;;;;;5.81;71.69;100683.34;4948207;29;2059;-83
2022/12/19 09:23:22;;;;;;;;;;;;;;;5.76;71.62;100685.72;4935823;29;1973;-83
2022/12/19 09:25:49;;;;;;;;;;;;;;;5.85;71.70;100681.94;4957054;28;2040;-83
2022/12/19 09:28:15;;;;;;;;;;;;;;;5.84;71.38;100675.78;4939836;29;1933;-83
2022/12/19 09:30:41;;;;;;;;;;;;;;;5.82;71.43;100675.13;4937635;29;2005;-83
2022/12/19 09:33:08;;;;;;;;;;;;;;;5.75;71.83;100682.22;4957839;28;2063;-84
2022/12/19 09:35:34;;;;;;;;;;;;;;;5.80;71.65;100679.84;4928493;29;4019;-83
2022/12/19 09:38:02;;;;;;;;;;;;;;;5.84;71.18;100677.63;4954478;28;3279;-83
2022/12/19 09:40:28;;;;;;;;;;;;;;;5.82;71.44;100674.28;4949789;28;3196;-84
2022/12/19 09:42:55;;;;;;;;;;;;;;;5.82;71.62;100669.78;4945748;28;1309;-82
2022/12/19 09:45:21;;;;;;;;;;;;;;;5.69;71.97;100674.97;4955754;28;1674;-83
2022/12/19 09:47:47;;;;;;;;;;;;;;;5.77;71.84;100671.38;4958530;29;1930;-83
2022/12/19 09:50:14;;;;;;;;;;;;;;;5.83;71.52;100666.09;4964178;29;1912;-84
2022/12/19 09:52:40;;;;;;;;;;;;;;;5.71;72.24;100651.56;4937460;29;2504;-84
2022/12/19 09:55:06;;;;;;;;;;;;;;;5.72;72.02;100661.22;4952314;28;2342;-83
2022/12/19 09:57:33;;;;;;;;;;;;;;;5.73;71.78;100654.03;4939825;29;1682;-84
2022/12/19 09:59:59;;;;;;;;;;;;;;;5.82;71.71;100644.91;4933848;29;1957;-84
2022/12/19 10:02:25;;;;;;;;;;;;;;;5.69;71.79;100645.56;4949869;29;2428;-84
2022/12/19 10:04:52;;;;;;;;;;;;;;;5.70;71.90;100641.88;4957611;28;2746;-84
2022/12/19 10:07:18;;;;;;;;;;;;;;;5.65;72.21;100642.44;4943988;29;2014;-84
2022/12/19 10:09:44;;;;;;;;;;;;;;;5.72;71.92;100642.53;4940792;28;2453;-84
2022/12/19 10:12:11;;;;;;;;;;;;;;;5.72;71.84;100644.38;4956810;28;1997;-84
2022/12/19 10:14:40;;;;;;;;;;;;;;;5.76;71.88;100648.31;4939864;29;1930;-81
2022/12/19 10:17:06;;;;;;;;;;;;;;;5.74;71.57;100645.03;4944890;28;2032;-82
2022/12/19 10:19:33;;;;;;;;;;;;;;;5.63;72.46;100646.31;4953388;29;2013;-83
2022/12/19 10:21:59;;;;;;;;;;;;;;;5.63;72.13;100641.78;4938872;29;2057;-83
2022/12/19 10:24:26;;;;;;;;;;;;;;;5.66;71.99;100637.91;4940897;29;1537;-82
2022/12/19 10:26:52;;;;;;;;;;;;;;;5.73;71.92;100635.31;4949676;28;2040;-83
2022/12/19 10:29:19;;;;;;;;;;;;;;;5.66;72.09;100620.03;4954794;29;2039;-84
2022/12/19 10:31:45;;;;;;;;;;;;;;;5.66;72.13;100619.22;4953547;28;2408;-83
2022/12/19 10:34:11;;;;;;;;;;;;;;;5.80;71.93;100612.19;4945140;29;2722;-83
2022/12/19 10:36:38;;;;;;;;;;;;;;;5.76;71.49;100606.38;4950574;28;2144;-82
2022/12/19 10:39:04;;;;;;;;;;;;;;;5.68;71.98;100606.50;4947944;28;4248;-82
2022/12/19 10:41:30;;;;;;;;;;;;;;;5.68;71.89;100593.97;4935403;29;2200;-84
2022/12/19 10:46:47;;;;;;;;;;;;;;;5.69;71.97;100590.25;4954829;29;2327;-84
2022/12/19 10:49:15;;;;;;;;;;;;;;;5.70;72.03;100577.72;4961128;28;2081;-83
2022/12/19 10:51:42;;;;;;;;;;;;;;;5.72;71.85;100577.56;4957626;29;2028;-83
2022/12/19 10:54:08;;;;;;;;;;;;;;;5.78;71.70;100572.28;4949233;29;2344;-83
2022/12/19 10:56:35;;;;;;;;;;;;;;;5.68;71.97;100583.28;4956217;29;2822;-83
2022/12/19 10:59:01;;;;;;;;;;;;;;;5.82;71.50;100576.22;4957645;28;2084;-83
2022/12/19 11:01:28;;;;;;;;;;;;;;;5.69;71.92;100568.88;4938671;29;2054;-83
2022/12/19 11:03:55;;;;;;;;;;;;;;;5.70;72.12;100572.38;4955194;28;1958;-83
2022/12/19 11:06:21;;;;;;;;;;;;;;;5.66;72.13;100571.13;4942412;29;1273;-83
2022/12/19 11:08:47;;;;;;;;;;;;;;;5.79;71.90;100568.59;4952840;29;2711;-84
2022/12/19 11:11:14;;;;;;;;;;;;;;;5.75;72.00;100561.16;4944302;28;1716;-83
2022/12/19 11:13:40;;;;;;;;;;;;;;;5.80;71.80;100569.44;4945302;28;2236;-83
2022/12/19 11:16:07;;;;;;;;;;;;;;;5.73;72.06;100568.50;4945112;28;2058;-83
2022/12/19 11:18:33;;;;;;;;;;;;;;;5.90;71.45;100564.59;4949264;28;2493;-84
2022/12/19 11:20:59;;;;;;;;;;;;;;;5.77;71.92;100565.28;4953875;29;2259;-83
2022/12/19 11:23:25;;;;;;;;;;;;;;;5.84;71.56;100566.19;4957365;28;1850;-84
2022/12/19 11:25:52;;;;;;;;;;;;;;;5.79;71.79;100557.88;4934320;29;1855;-83
2022/12/19 11:28:18;;;;;;;;;;;;;;;5.70;72.08;100559.84;4946904;29;2299;-83
2022/12/19 11:30:44;;;;;;;;;;;;;;;5.74;71.97;100546.97;4952889;29;2029;-82
2022/12/19 11:33:11;;;;;;;;;;;;;;;5.81;71.45;100542.50;4936834;29;2000;-90
2022/12/19 11:35:37;;;;;;;;;;;;;;;5.72;72.19;100540.13;4954544;29;2134;-85
2022/12/19 11:38:04;;;;;;;;;;;;;;;5.86;71.46;100541.94;4953504;28;2180;-83
2022/12/19 11:40:31;;;;;;;;;;;;;;;5.87;71.65;100535.56;4957848;28;870;-83
2022/12/19 11:42:57;;;;;;;;;;;;;;;5.77;71.79;100538.56;4938597;29;1897;-85
2022/12/19 11:45:24;;;;;;;;;;;;;;;5.82;71.87;100530.78;4939266;29;1808;-84
2022/12/19 11:47:50;;;;;;;;;;;;;;;5.83;71.81;100519.09;4936375;29;3577;-82
2022/12/19 11:50:16;;;;;;;;;;;;;;;5.79;71.82;100514.31;4950193;28;3039;-84
2022/12/19 11:52:43;;;;;;;;;;;;;;;5.71;72.01;100507.25;4939818;29;2013;-84
2022/12/19 11:55:09;;;;;;;;;;;;;;;5.73;72.08;100499.03;4941080;28;2579;-83
2022/12/19 11:57:35;;;;;;;;;;;;;;;5.76;71.95;100507.50;4964837;28;1153;-82
2022/12/19 12:00:02;;;;;;;;;;;;;;;5.76;71.75;100494.13;4956325;29;1725;-84
2022/12/19 12:02:28;;;;;;;;;;;;;;;5.71;72.02;100488.53;4937416;29;1826;-84
2022/12/19 12:04:54;;;;;;;;;;;;;;;5.71;72.28;100480.53;4942311;29;1834;-84
2022/12/19 12:07:21;;;;;;;;;;;;;;;5.83;71.72;100478.19;4929300;29;2587;-83
2022/12/19 12:09:47;;;;;;;;;;;;;;;5.72;72.19;100471.47;4953791;28;1819;-84
2022/12/19 12:12:13;;;;;;;;;;;;;;;5.76;71.83;100471.94;4959409;28;2388;-83
2022/12/19 12:14:40;;;;;;;;;;;;;;;5.79;71.82;100466.19;4945889;28;2416;-84
2022/12/19 12:17:06;;;;;;;;;;;;;;;5.69;71.87;100455.84;4936245;29;1766;-84
2022/12/19 12:19:33;;;;;;;;;;;;;;;5.67;72.37;100452.50;4933208;29;2547;-84
2022/12/19 12:21:59;;;;;;;;;;;;;;;5.72;72.41;100454.63;4962344;28;1846;-83
2022/12/19 12:24:25;;;;;;;;;;;;;;;5.58;72.30;100453.66;4950096;23;3890;-82
2022/12/19 12:26:52;;;;;;;;;;;;;;;5.64;72.35;100447.53;4992275;23;3841;-83
2022/12/19 12:29:18;;;;;;;;;;;;;;;5.67;72.19;100442.66;4961247;28;1921;-84
2022/12/19 12:31:44;;;;;;;;;;;;;;;5.64;72.29;100434.19;4970588;28;1829;-83
2022/12/19 12:34:11;;;;;;;;;;;;;;;5.70;72.26;100428.06;4962869;28;1915;-84
2022/12/19 12:36:37;;;;;;;;;;;;;;;5.61;72.54;100429.22;4982357;28;1766;-82
2022/12/19 12:39:03;;;;;;;;;;;;;;;5.67;72.31;100417.78;4990383;28;1935;-85
2022/12/19 12:44:10;;;;;;;;;;;;;;;5.58;72.57;100416.25;4946149;28;4291;-84
2022/12/19 12:46:36;;;;;;;;;;;;;;;5.54;72.89;100410.47;4985231;28;1892;-84
2022/12/19 12:49:02;;;;;;;;;;;;;;;5.65;72.30;100417.16;4950980;28;2076;-84
2022/12/19 12:51:30;;;;;;;;;;;;;;;5.64;72.46;100410.97;4973989;28;4164;-84
2022/12/19 12:53:56;;;;;;;;;;;;;;;5.51;72.96;100402.84;4967464;28;3310;-83
2022/12/19 12:56:23;;;;;;;;;;;;;;;5.46;73.08;100406.06;4961244;28;1898;-85
2022/12/19 12:58:50;;;;;;;;;;;;;;;5.63;72.55;100409.31;4982991;28;3136;-83
2022/12/19 13:01:17;;;;;;;;;;;;;;;5.53;72.98;100400.81;4976829;28;1933;-82
2022/12/19 13:03:43;;;;;;;;;;;;;;;5.64;72.56;100399.44;4980438;28;2025;-82